Time;durP1;ratioP1;P1;durP2;ratioP2;P2;SDS_P1;SDS_P2;PMS_P1;PMS_P2;Temp;Humidity;BMP_temperature;BMP_pressure;BME280_temperature;BME280_humidity;BME280_pressure;Samples;Min_cycle;Max_cycle;Signal;HPM_P1;HPM_P2
2020/12/15 00:00:30;;;;;;;11.30;3.50;;;;;;;9.23;84.25;100273.91;4950550;28;20122;-70
2020/12/15 00:02:56;;;;;;;7.95;3.58;;;;;;;9.21;85.11;100275.81;4949374;28;20135;-70
2020/12/15 00:05:21;;;;;;;10.95;3.03;;;;;;;9.17;85.82;100268.94;4950164;28;20171;-70
2020/12/15 00:07:46;;;;;;;10.15;4.00;;;;;;;9.22;87.06;100272.16;4950404;28;20497;-70
2020/12/15 00:10:12;;;;;;;6.75;3.53;;;;;;;9.18;88.86;100268.00;4946001;28;20078;-70
2020/12/15 00:12:37;;;;;;;7.28;3.47;;;;;;;9.00;90.38;100262.03;4961367;28;20035;-70
2020/12/15 00:15:03;;;;;;;9.82;3.40;;;;;;;9.04;90.80;100276.91;4945776;28;20046;-71
2020/12/15 00:17:28;;;;;;;9.50;3.67;;;;;;;8.88;91.52;100269.03;4948646;28;20229;-71
2020/12/15 00:19:54;;;;;;;7.22;3.22;;;;;;;8.86;92.92;100270.94;4950008;28;20027;-71
2020/12/15 00:22:19;;;;;;;8.55;4.18;;;;;;;8.80;94.29;100270.47;4964282;28;20509;-71
2020/12/15 00:24:45;;;;;;;9.80;4.03;;;;;;;8.72;94.88;100262.06;4948256;28;20045;-71
2020/12/15 00:27:11;;;;;;;8.68;4.70;;;;;;;8.62;96.46;100256.44;4947169;28;20032;-71
2020/12/15 00:29:37;;;;;;;8.80;4.38;;;;;;;8.55;97.32;100254.25;4945368;28;20062;-71
2020/12/15 00:32:03;;;;;;;11.77;4.70;;;;;;;8.52;98.51;100255.28;4947371;28;20043;-70
2020/12/15 00:34:29;;;;;;;10.52;5.15;;;;;;;8.59;99.18;100251.28;4948846;28;20695;-71
2020/12/15 00:36:57;;;;;;;10.20;5.47;;;;;;;8.49;99.06;100251.03;4965105;28;20043;-71
2020/12/15 00:39:22;;;;;;;14.95;6.00;;;;;;;8.47;99.45;100252.06;4949345;28;20035;-71
2020/12/15 00:41:49;;;;;;;10.77;5.22;;;;;;;8.53;100.00;100249.00;4944112;28;20047;-71
2020/12/15 00:44:15;;;;;;;15.80;5.60;;;;;;;8.40;100.00;100251.59;4945509;28;20027;-71
2020/12/15 00:46:49;;;;;;;9.57;5.00;;;;;;;8.38;100.00;100248.16;4948180;28;20075;-70
2020/12/15 00:49:15;;;;;;;15.50;6.05;;;;;;;8.33;100.00;100250.25;4946692;28;20082;-70
2020/12/15 00:51:41;;;;;;;11.25;6.28;;;;;;;8.34;100.00;100253.78;4948573;28;20051;-70
2020/12/15 00:54:06;;;;;;;10.25;5.60;;;;;;;8.34;100.00;100256.44;4946490;28;20121;-70
2020/12/15 00:56:32;;;;;;;12.32;6.07;;;;;;;8.29;100.00;100253.19;4950055;28;20039;-71
2020/12/15 00:58:57;;;;;;;9.45;6.15;;;;;;;8.21;100.00;100255.50;4962295;28;20062;-71
2020/12/15 01:01:23;;;;;;;19.38;7.30;;;;;;;8.18;100.00;100256.53;4948311;28;20046;-71
2020/12/15 01:03:48;;;;;;;10.25;5.85;;;;;;;8.13;100.00;100264.84;4946960;28;20038;-72
2020/12/15 01:06:19;;;;;;;10.40;5.95;;;;;;;8.24;100.00;100255.28;4954192;28;20023;-71
2020/12/15 01:08:46;;;;;;;13.13;6.30;;;;;;;8.18;100.00;100256.53;4947599;29;20031;-71
2020/12/15 01:11:12;;;;;;;10.43;6.30;;;;;;;8.19;100.00;100260.06;4963773;28;20023;-71
2020/12/15 01:13:37;;;;;;;14.45;6.65;;;;;;;8.10;100.00;100254.31;4948182;28;20451;-71
2020/12/15 01:16:07;;;;;;;13.02;5.60;;;;;;;8.10;100.00;100259.66;4955341;28;20039;-71
2020/12/15 01:18:34;;;;;;;11.65;5.82;;;;;;;8.07;100.00;100249.19;4946751;28;20037;-71
2020/12/15 01:21:04;;;;;;;10.48;5.75;;;;;;;8.11;100.00;100256.03;4946893;28;20050;-71
2020/12/15 01:23:30;;;;;;;11.25;5.22;;;;;;;8.05;100.00;100248.41;4946820;28;20143;-71
2020/12/15 01:26:01;;;;;;;11.60;5.40;;;;;;;8.02;100.00;100245.06;4962163;28;20166;-71
2020/12/15 01:28:27;;;;;;;11.80;5.45;;;;;;;8.07;100.00;100242.97;4947829;28;20110;-71
2020/12/15 01:30:53;;;;;;;11.55;5.25;;;;;;;8.05;100.00;100243.06;4947379;28;20139;-71
2020/12/15 01:33:30;;;;;;;9.05;5.35;;;;;;;8.02;100.00;100239.72;4950213;28;20446;-70
2020/12/15 01:36:13;;;;;;;13.02;4.65;;;;;;;8.04;100.00;100248.50;4964114;28;20045;-70
2020/12/15 01:39:04;;;;;;;9.70;5.38;;;;;;;8.10;100.00;100248.09;4945228;28;20074;-71
2020/12/15 01:41:40;;;;;;;8.80;4.90;;;;;;;8.03;100.00;100254.78;4962791;28;20094;-71
2020/12/15 01:44:07;;;;;;;11.32;5.40;;;;;;;7.94;100.00;100252.69;4963169;28;20024;-71
2020/12/15 01:46:40;;;;;;;;;;;;;;;7.99;100.00;100246.09;4964222;28;20031;-71
2020/12/15 01:49:07;;;;;;;9.02;4.03;;;;;;;8.02;100.00;100256.59;4963901;28;19933;-71
2020/12/15 01:51:41;;;;;;;10.60;4.68;;;;;;;7.93;100.00;100254.50;4962447;28;20114;-70
2020/12/15 01:54:08;;;;;;;11.45;5.00;;;;;;;7.96;100.00;100266.81;4948505;28;20028;-70
2020/12/15 01:56:42;;;;;;;9.73;4.85;;;;;;;7.92;100.00;100266.13;4948440;28;20038;-71
2020/12/15 01:59:18;;;;;;;9.90;4.35;;;;;;;7.94;100.00;100266.06;4960225;28;20561;-70
2020/12/15 02:01:45;;;;;;;16.05;5.35;;;;;;;7.95;100.00;100263.28;4950323;28;20059;-71
2020/12/15 02:04:14;;;;;;;9.70;4.68;;;;;;;7.94;100.00;100252.69;4967597;28;20030;-71
2020/12/15 02:07:00;;;;;;;9.55;4.75;;;;;;;7.97;100.00;100264.03;4949862;28;20386;-71
2020/12/15 02:09:27;;;;;;;9.60;4.80;;;;;;;7.89;100.00;100250.31;4967528;28;20030;-71
2020/12/15 02:12:08;;;;;;;11.05;4.88;;;;;;;7.91;100.00;100261.72;4963069;28;20023;-71
2020/12/15 02:14:38;;;;;;;9.65;4.85;;;;;;;7.87;100.00;100260.22;4950346;28;20027;-71
2020/12/15 02:17:03;;;;;;;10.85;4.68;;;;;;;7.87;100.00;100251.34;4947715;28;20458;-71
2020/12/15 02:20:04;;;;;;;12.05;5.20;;;;;;;7.90;100.00;100253.84;4962002;28;20628;-69
2020/12/15 02:22:31;;;;;;;8.90;5.55;;;;;;;7.81;100.00;100249.91;4967507;28;20035;-70
2020/12/15 02:24:57;;;;;;;9.77;5.20;;;;;;;7.90;100.00;100251.16;4967780;28;20098;-69
2020/12/15 02:27:23;;;;;;;11.32;5.28;;;;;;;7.88;100.00;100247.72;4966526;28;20039;-69
2020/12/15 02:29:48;;;;;;;10.32;5.47;;;;;;;7.86;100.00;100250.47;4967512;28;20038;-69
2020/12/15 02:32:15;;;;;;;11.13;5.07;;;;;;;7.85;100.00;100255.91;4967980;28;20118;-70
2020/12/15 02:34:45;;;;;;;10.20;5.47;;;;;;;7.87;100.00;100257.53;4966423;28;20086;-69
2020/12/15 02:37:14;;;;;;;10.00;5.78;;;;;;;7.93;100.00;100262.50;4966985;28;20584;-69
2020/12/15 02:39:57;;;;;;;14.30;6.13;;;;;;;7.86;100.00;100254.94;4947938;29;20030;-69
2020/12/15 02:42:49;;;;;;;13.90;6.40;;;;;;;7.87;100.00;100252.19;4949834;28;20409;-70
2020/12/15 02:45:16;;;;;;;13.43;5.93;;;;;;;7.81;100.00;100257.91;4967971;28;20035;-69
2020/12/15 02:47:42;;;;;;;14.65;6.32;;;;;;;7.82;100.00;100264.97;4967403;28;20094;-69
2020/12/15 02:50:11;;;;;;;10.25;6.75;;;;;;;7.84;100.00;100256.88;4964910;28;20066;-69
2020/12/15 02:52:37;;;;;;;13.13;6.30;;;;;;;7.84;100.00;100262.22;4966221;28;20421;-70
2020/12/15 02:55:05;;;;;;;11.63;6.20;;;;;;;7.89;100.00;100261.00;4966747;28;20073;-69
2020/12/15 02:57:38;;;;;;;14.60;7.57;;;;;;;7.80;100.00;100256.19;4951206;29;20023;-69
2020/12/15 03:00:12;;;;;;;12.05;6.20;;;;;;;7.86;100.00;100255.81;4961768;28;20063;-69
2020/12/15 03:02:39;;;;;;;12.68;7.65;;;;;;;7.84;100.00;100247.03;4950132;28;20046;-69
2020/12/15 03:05:06;;;;;;;12.05;7.38;;;;;;;7.85;100.00;100255.91;4951536;28;20039;-69
2020/12/15 03:07:32;;;;;;;15.77;8.68;;;;;;;7.82;100.00;100258.78;4965843;28;20031;-70
2020/12/15 03:10:00;;;;;;;12.52;6.97;;;;;;;7.85;100.00;100259.44;4965394;28;20046;-68
2020/12/15 03:12:35;;;;;;;12.50;7.95;;;;;;;7.82;100.00;100256.09;4949533;28;20027;-69
2020/12/15 03:15:01;;;;;;;11.52;7.32;;;;;;;7.77;100.00;100251.03;4949845;28;20438;-69
2020/12/15 03:17:28;;;;;;;13.73;7.68;;;;;;;7.77;100.00;100259.06;4948862;28;20031;-69
2020/12/15 03:19:55;;;;;;;13.73;8.55;;;;;;;7.84;100.00;100252.38;4963240;28;20023;-70
2020/12/15 03:22:21;;;;;;;12.25;8.27;;;;;;;7.80;100.00;100258.84;4947031;28;20127;-69
2020/12/15 03:24:52;;;;;;;14.13;8.07;;;;;;;7.82;100.00;100258.78;4965685;28;20027;-68
2020/12/15 03:27:23;;;;;;;14.20;7.50;;;;;;;7.80;100.00;100266.00;4965828;28;20106;-69
2020/12/15 03:29:48;;;;;;;14.68;7.13;;;;;;;7.77;100.00;100253.72;4950503;29;20020;-70
2020/12/15 03:32:15;;;;;;;11.60;7.38;;;;;;;7.68;100.00;100252.44;4964882;28;20042;-69
2020/12/15 03:34:40;;;;;;;16.00;8.13;;;;;;;7.79;100.00;100259.81;4966271;28;20035;-69
2020/12/15 03:37:07;;;;;;;15.18;7.03;;;;;;;7.67;100.00;100256.06;4966248;28;20532;-70
2020/12/15 03:39:41;;;;;;;13.68;7.18;;;;;;;7.71;100.00;100259.44;4949759;28;20030;-69
2020/12/15 03:42:19;;;;;;;15.73;7.50;;;;;;;7.79;100.00;100269.63;4964461;28;20430;-69
2020/12/15 03:44:45;;;;;;;15.48;7.93;;;;;;;7.74;100.00;100267.25;4963933;28;20208;-69
2020/12/15 03:47:14;;;;;;;12.35;7.22;;;;;;;7.76;100.00;100262.69;4966416;28;20046;-69
2020/12/15 03:49:40;;;;;;;18.35;8.32;;;;;;;7.73;100.00;100260.19;4965938;28;20027;-69
2020/12/15 03:52:07;;;;;;;14.23;8.75;;;;;;;7.69;100.00;100274.69;4965042;28;20294;-69
2020/12/15 03:54:32;;;;;;;16.42;7.45;;;;;;;7.70;100.00;100271.06;4950935;28;20622;-69
2020/12/15 03:57:24;;;;;;;10.02;6.00;;;;;;;7.76;100.00;100277.84;4946274;29;20117;-69
2020/12/15 04:00:28;;;;;;;9.60;6.53;;;;;;;7.70;100.00;100263.91;4945900;28;20134;-69
2020/12/15 04:03:06;;;;;;;14.05;7.22;;;;;;;7.69;100.00;100266.66;4948753;29;20043;-69
2020/12/15 04:05:44;;;;;;;12.95;7.13;;;;;;;7.73;100.00;100270.84;4950538;28;20047;-69
2020/12/15 04:08:10;;;;;;;16.73;6.72;;;;;;;7.72;100.00;100274.47;4962493;28;20521;-69
2020/12/15 04:10:36;;;;;;;14.73;6.82;;;;;;;7.71;100.00;100270.13;4946449;29;20027;-69
2020/12/15 04:13:01;;;;;;;14.80;7.15;;;;;;;7.68;100.00;100272.94;4947314;28;20438;-69
2020/12/15 04:15:33;;;;;;;15.82;8.15;;;;;;;7.71;100.00;100278.13;4960098;28;20028;-69
2020/12/15 04:18:02;;;;;;;12.90;7.03;;;;;;;7.71;100.00;100273.63;4964760;28;20074;-68
2020/12/15 04:20:28;;;;;;;14.45;7.53;;;;;;;7.69;100.00;100286.22;4964546;28;20035;-69
2020/12/15 04:22:53;;;;;;;12.93;7.78;;;;;;;7.71;100.00;100278.13;4948640;28;20629;-69
2020/12/15 04:25:25;;;;;;;11.85;7.45;;;;;;;7.63;100.00;100280.38;4965121;28;20386;-69
2020/12/15 04:27:51;;;;;;;11.38;7.32;;;;;;;7.73;100.00;100278.88;4949746;28;20090;-69
2020/12/15 04:30:17;;;;;;;14.70;7.63;;;;;;;7.79;100.00;100283.84;4947725;28;20023;-69
2020/12/15 04:32:43;;;;;;;14.43;7.80;;;;;;;7.73;100.00;100289.56;4956259;28;20031;-69
2020/12/15 04:35:17;;;;;;;15.60;7.70;;;;;;;7.79;100.00;100289.19;4950602;29;20038;-69
2020/12/15 04:37:47;;;;;;;19.25;7.38;;;;;;;7.77;100.00;100283.09;4948656;28;20046;-69
2020/12/15 04:40:16;;;;;;;15.82;7.68;;;;;;;7.72;100.00;100287.84;4947237;28;20038;-69
2020/12/15 04:42:46;;;;;;;14.15;7.18;;;;;;;7.77;100.00;100282.25;4951709;28;20046;-70
2020/12/15 04:45:12;;;;;;;12.30;7.63;;;;;;;7.78;100.00;100284.78;4950547;28;20027;-68
2020/12/15 04:47:48;;;;;;;15.98;8.27;;;;;;;7.84;100.00;100292.44;4964236;28;20442;-69
2020/12/15 04:50:24;;;;;;;14.10;7.40;;;;;;;7.84;100.00;100303.13;4959100;28;20031;-68
2020/12/15 04:52:58;;;;;;;19.73;8.45;;;;;;;7.78;100.00;100300.81;4963984;28;20147;-69
2020/12/15 04:55:48;;;;;;;11.68;7.38;;;;;;;7.90;100.00;100302.75;4935479;28;20039;-69
2020/12/15 04:58:19;;;;;;;15.90;7.70;;;;;;;7.87;100.00;100296.75;4944919;29;20051;-69
2020/12/15 05:00:45;;;;;;;13.38;8.15;;;;;;;7.82;100.00;100297.03;4960616;28;20035;-69
2020/12/15 05:03:21;;;;;;;15.25;8.00;;;;;;;7.85;100.00;100296.84;4958531;28;20410;-69
2020/12/15 05:05:51;;;;;;;13.50;7.55;;;;;;;7.85;100.00;100295.97;4957723;28;20441;-69
2020/12/15 05:08:19;;;;;;;16.02;6.53;;;;;;;7.76;100.00;100307.22;4964472;28;20143;-69
2020/12/15 05:11:03;;;;;;;19.05;7.10;;;;;;;7.75;100.00;100314.38;4948402;29;20043;-69
2020/12/15 05:13:43;;;;;;;12.30;6.63;;;;;;;7.79;100.00;100302.56;4965431;28;20031;-69
2020/12/15 05:16:09;;;;;;;15.32;8.52;;;;;;;7.88;100.00;100307.38;4964148;28;20039;-70
2020/12/15 05:19:03;;;;;;;11.95;7.55;;;;;;;7.92;100.00;100298.19;4964348;28;20026;-69
2020/12/15 05:21:30;;;;;;;14.50;7.82;;;;;;;7.88;100.00;100302.03;4963591;28;20062;-69
2020/12/15 05:24:08;;;;;;;16.05;8.32;;;;;;;7.92;100.00;100292.84;4948158;28;20034;-69
2020/12/15 05:26:41;;;;;;;17.98;7.25;;;;;;;7.91;100.00;100303.63;4964798;28;20027;-69
2020/12/15 05:29:08;;;;;;;16.80;7.45;;;;;;;7.81;100.00;100300.66;4964197;28;20174;-70
2020/12/15 05:31:48;;;;;;;14.43;8.32;;;;;;;7.88;100.00;100293.13;4964580;28;20031;-70
2020/12/15 05:34:32;;;;;;;22.90;12.60;;;;;;;7.83;100.00;100303.25;4948412;28;20066;-70
2020/12/15 05:37:18;;;;;;;15.25;10.30;;;;;;;7.85;100.00;100304.84;4950931;29;20090;-69
2020/12/15 05:40:03;;;;;;;14.98;8.25;;;;;;;7.86;100.00;100298.56;4954382;29;20069;-69
2020/12/15 05:42:43;;;;;;;16.33;9.35;;;;;;;7.91;100.00;100307.16;4967198;28;20138;-70
2020/12/15 05:45:08;;;;;;;16.05;8.90;;;;;;;7.87;100.00;100302.97;4968139;28;20118;-70
2020/12/15 05:47:39;;;;;;;15.30;9.38;;;;;;;7.78;100.00;100300.00;4952297;28;20445;-70
2020/12/15 05:50:06;;;;;;;16.63;9.75;;;;;;;7.81;100.00;100299.78;4963824;28;20134;-70
2020/12/15 05:52:32;;;;;;;17.77;8.48;;;;;;;7.79;100.00;100302.56;4952474;28;20311;-70
2020/12/15 05:55:11;;;;;;;21.75;10.75;;;;;;;7.85;100.00;100307.53;4952654;29;20127;-70
2020/12/15 05:57:36;;;;;;;17.45;9.88;;;;;;;7.79;100.00;100307.91;4953333;29;20122;-71
2020/12/15 06:00:12;;;;;;;21.38;10.70;;;;;;;7.75;100.00;100311.72;4960618;28;20027;-70
2020/12/15 06:02:41;;;;;;;18.95;9.65;;;;;;;7.82;100.00;100307.72;4949837;28;20173;-71
2020/12/15 06:05:07;;;;;;;15.43;8.43;;;;;;;7.89;100.00;100306.41;4952222;28;20078;-70
2020/12/15 06:07:34;;;;;;;13.48;7.97;;;;;;;7.95;100.00;100307.84;4952627;28;20509;-70
2020/12/15 06:10:01;;;;;;;17.65;9.93;;;;;;;7.89;100.00;100309.09;4960564;28;20035;-71
2020/12/15 06:12:27;;;;;;;14.48;8.30;;;;;;;7.95;100.00;100305.19;4965879;28;20477;-70
2020/12/15 06:14:53;;;;;;;20.77;9.68;;;;;;;7.93;100.00;100305.28;4952925;28;20536;-70
2020/12/15 06:17:20;;;;;;;15.18;9.40;;;;;;;7.91;100.00;100308.97;4966901;28;20027;-70
2020/12/15 06:19:57;;;;;;;17.25;9.98;;;;;;;7.94;100.00;100309.66;4966542;28;20043;-70
2020/12/15 06:22:24;;;;;;;17.48;9.57;;;;;;;7.85;100.00;100304.84;4949835;28;20069;-70
2020/12/15 06:24:55;;;;;;;16.60;9.25;;;;;;;7.93;100.00;100304.41;4948784;29;20047;-70
2020/12/15 06:27:33;;;;;;;14.65;9.05;;;;;;;7.95;100.00;100303.38;4966261;28;20039;-70
2020/12/15 10:41:27;;;;;;;66.05;28.40;;;;;;;9.02;100.00;100430.53;5122140;27;20744;-72
2020/12/15 10:43:52;;;;;;;43.38;23.15;;;;;;;9.06;100.00;100437.44;5107931;28;20040;-72
2020/12/15 10:46:27;;;;;;;35.92;19.30;;;;;;;9.13;100.00;100444.16;5094492;28;20392;-71
2020/12/15 10:48:53;;;;;;;32.42;18.77;;;;;;;9.15;100.00;100434.19;5100052;28;20028;-71
2020/12/15 10:51:19;;;;;;;33.17;18.27;;;;;;;9.15;100.00;100435.03;5107456;28;20499;-70
2020/12/15 10:53:44;;;;;;;38.72;19.27;;;;;;;9.22;100.00;100439.06;5096873;28;20028;-71
2020/12/15 10:56:12;;;;;;;34.95;19.52;;;;;;;9.15;100.00;100452.94;5089884;28;20040;-69
2020/12/15 10:58:39;;;;;;;34.85;19.90;;;;;;;9.18;100.00;100458.09;5090088;28;20042;-72
2020/12/15 11:01:06;;;;;;;41.05;20.50;;;;;;;9.19;100.00;100455.34;5090181;28;20393;-72
2020/12/15 11:03:31;;;;;;;32.55;18.55;;;;;;;9.24;100.00;100452.38;5086500;28;20032;-72
2020/12/15 11:05:56;;;;;;;32.40;20.15;;;;;;;9.29;100.00;100458.28;5069715;28;20089;-72
2020/12/15 11:08:22;;;;;;;33.88;19.05;;;;;;;9.30;100.00;100463.56;5087941;28;20036;-72
2020/12/15 11:10:47;;;;;;;32.03;18.98;;;;;;;9.34;100.00;100456.16;5088200;28;20077;-72
2020/12/15 11:13:13;;;;;;;37.08;19.70;;;;;;;9.33;100.00;100463.34;5086512;28;20094;-72
2020/12/15 11:15:38;;;;;;;35.70;19.67;;;;;;;9.29;100.00;100471.69;5087719;28;20036;-71
2020/12/15 11:18:05;;;;;;;42.58;20.05;;;;;;;9.28;100.00;100459.22;5086452;28;20036;-72
2020/12/15 11:20:31;;;;;;;40.45;20.85;;;;;;;9.31;100.00;100448.34;5085975;28;20028;-72
2020/12/15 11:23:00;;;;;;;34.05;19.55;;;;;;;9.32;100.00;100436.66;5087233;28;20040;-72
2020/12/15 11:25:26;;;;;;;38.50;19.45;;;;;;;9.29;100.00;100432.38;5087431;28;20082;-72
2020/12/15 11:27:51;;;;;;;29.92;18.55;;;;;;;9.29;100.00;100451.13;5087491;28;20036;-72
2020/12/15 11:30:17;;;;;;;36.20;20.73;;;;;;;9.21;100.00;100463.25;5087429;28;20031;-71
2020/12/15 11:32:42;;;;;;;32.90;18.63;;;;;;;9.21;100.00;100468.59;5092744;28;20439;-71
2020/12/15 11:35:08;;;;;;;36.25;20.48;;;;;;;9.28;100.00;100464.59;5098941;28;20035;-72
2020/12/15 11:37:38;;;;;;;35.78;20.02;;;;;;;9.34;100.00;100465.06;5107637;28;20059;-71
2020/12/15 11:40:03;;;;;;;36.05;18.38;;;;;;;9.23;100.00;100474.75;5089054;28;20028;-70
2020/12/15 11:42:28;;;;;;;37.70;19.27;;;;;;;9.19;100.00;100466.03;5093594;28;20054;-71
2020/12/15 11:44:54;;;;;;;36.17;19.48;;;;;;;9.27;100.00;100473.56;5093756;28;20113;-71
2020/12/15 11:47:21;;;;;;;39.58;19.73;;;;;;;9.30;100.00;100462.69;5093832;28;20023;-71
2020/12/15 11:49:47;;;;;;;36.75;20.20;;;;;;;9.23;100.00;100466.72;5093903;28;20388;-71
2020/12/15 11:52:12;;;;;;;42.15;21.10;;;;;;;9.32;100.00;100460.75;5093436;28;20058;-71
2020/12/15 11:54:39;;;;;;;36.95;19.73;;;;;;;9.37;100.00;100466.72;5093631;28;20028;-71
2020/12/15 11:57:06;;;;;;;32.45;18.48;;;;;;;9.44;100.00;100462.69;5093665;28;20036;-71
2020/12/15 11:59:31;;;;;;;33.75;19.30;;;;;;;9.48;100.00;100477.59;5093505;28;20123;-71
2020/12/15 12:01:56;;;;;;;45.38;23.42;;;;;;;9.44;100.00;100483.25;5093395;28;20115;-71
2020/12/15 12:04:22;;;;;;;61.40;28.27;;;;;;;9.34;100.00;100491.00;5093032;28;20402;-70
2020/12/15 12:06:47;;;;;;;59.35;30.20;;;;;;;9.29;100.00;100488.59;5093484;28;20044;-70
2020/12/15 12:09:12;;;;;;;108.25;50.97;;;;;;;9.37;100.00;100490.81;5093344;28;20101;-71
2020/12/15 12:11:38;;;;;;;56.03;31.38;;;;;;;9.38;100.00;100492.50;5093300;28;20130;-71
2020/12/15 12:14:03;;;;;;;44.63;23.10;;;;;;;9.52;100.00;100489.81;5092969;28;20036;-71
2020/12/15 12:16:28;;;;;;;50.15;26.48;;;;;;;9.37;100.00;100496.16;5092077;28;20028;-70
2020/12/15 12:18:54;;;;;;;39.83;22.65;;;;;;;9.29;100.00;100493.09;5083705;28;20067;-70
2020/12/15 12:21:19;;;;;;;50.92;25.20;;;;;;;9.32;100.00;100492.88;5098002;28;20031;-70
2020/12/15 12:23:45;;;;;;;43.60;21.58;;;;;;;9.32;100.00;100488.41;5074436;28;20512;-71
2020/12/15 12:26:15;;;;;;;38.72;20.63;;;;;;;9.31;100.00;100485.84;5092849;28;20031;-71
2020/12/15 12:28:40;;;;;;;42.72;20.17;;;;;;;9.36;100.00;100488.22;5091699;28;20391;-71
2020/12/15 12:31:06;;;;;;;46.20;20.45;;;;;;;9.33;100.00;100486.59;5080417;28;20040;-71
2020/12/15 12:33:31;;;;;;;42.47;21.83;;;;;;;9.41;100.00;100481.63;5081647;28;20039;-71
2020/12/15 12:35:56;;;;;;;40.60;20.60;;;;;;;9.47;100.00;100481.22;5095337;28;20066;-71
2020/12/15 12:38:22;;;;;;;38.75;19.65;;;;;;;9.51;100.00;100487.22;5072646;28;20036;-71
2020/12/15 12:40:48;;;;;;;33.03;19.05;;;;;;;9.50;100.00;100486.41;5088538;28;20032;-72
2020/12/15 12:43:14;;;;;;;34.40;19.23;;;;;;;9.44;100.00;100480.56;5080715;28;20046;-71
2020/12/15 12:45:42;;;;;;;35.53;18.80;;;;;;;9.33;100.00;100478.56;5088861;28;20107;-71
2020/12/15 12:48:09;;;;;;;39.20;20.30;;;;;;;9.47;100.00;100480.34;5094850;28;20059;-71
2020/12/15 12:50:35;;;;;;;45.30;19.73;;;;;;;9.36;100.00;100489.09;5081780;28;20024;-71
2020/12/15 12:53:00;;;;;;;38.17;19.67;;;;;;;9.31;100.00;100485.84;5083417;28;20532;-71
2020/12/15 12:55:27;;;;;;;38.67;18.83;;;;;;;9.29;100.00;100487.75;5084980;28;20042;-71
2020/12/15 12:57:53;;;;;;;37.80;20.00;;;;;;;9.36;100.00;100491.75;5069478;28;20035;-71
2020/12/15 13:00:19;;;;;;;40.08;17.75;;;;;;;9.49;100.00;100490.03;5078368;28;20036;-71
2020/12/15 13:02:44;;;;;;;39.00;17.92;;;;;;;9.40;100.00;100497.78;5071372;28;20032;-71
2020/12/15 13:05:10;;;;;;;31.92;17.27;;;;;;;9.37;100.00;100490.81;5087420;28;20433;-71
2020/12/15 13:07:35;;;;;;;35.58;17.45;;;;;;;9.33;100.00;100505.34;5102887;28;20063;-71
2020/12/15 13:10:01;;;;;;;36.47;17.40;;;;;;;9.35;100.00;100487.34;5088655;28;20027;-72
2020/12/15 13:12:27;;;;;;;32.85;16.70;;;;;;;9.47;100.00;100497.31;5094158;28;20032;-72
2020/12/15 13:14:53;;;;;;;32.33;16.33;;;;;;;9.46;100.00;100505.41;5091031;28;20035;-71
2020/12/15 13:17:18;;;;;;;29.80;15.75;;;;;;;9.46;100.00;100511.66;5070644;28;20043;-71
2020/12/15 13:19:44;;;;;;;34.10;14.32;;;;;;;9.55;100.00;100500.38;5090305;28;20036;-71
2020/12/15 13:22:09;;;;;;;31.98;15.45;;;;;;;9.49;100.00;100507.94;5101755;28;20038;-71
2020/12/15 13:24:34;;;;;;;30.90;14.65;;;;;;;9.47;100.00;100508.00;5094175;28;20088;-71
2020/12/15 13:27:00;;;;;;;25.88;14.02;;;;;;;9.44;100.00;100518.94;5076965;28;20035;-71
2020/12/15 13:29:25;;;;;;;26.27;13.13;;;;;;;9.62;100.00;100507.06;5070192;28;20735;-71
2020/12/15 13:31:51;;;;;;;35.28;15.82;;;;;;;9.61;100.00;100521.41;5077725;28;20073;-71
2020/12/15 13:34:16;;;;;;;37.08;17.40;;;;;;;9.50;100.00;100523.91;5083157;28;20032;-74
2020/12/15 13:36:42;;;;;;;33.53;15.57;;;;;;;9.54;100.00;100525.44;5070955;28;20051;-71
2020/12/15 13:39:07;;;;;;;25.90;13.15;;;;;;;9.49;100.00;100522.19;5088484;28;20485;-71
2020/12/15 13:41:33;;;;;;;25.17;12.90;;;;;;;9.47;100.00;100515.19;5079827;28;20060;-71
2020/12/15 13:43:58;;;;;;;25.67;14.52;;;;;;;9.50;100.00;100525.72;5078186;28;20046;-71
2020/12/15 13:46:23;;;;;;;24.52;12.95;;;;;;;9.50;100.00;100528.41;5074659;28;20130;-71
2020/12/15 13:48:49;;;;;;;26.70;12.57;;;;;;;9.48;100.00;100536.53;5084171;28;20041;-71
2020/12/15 13:51:15;;;;;;;21.80;11.35;;;;;;;9.53;100.00;100545.13;5083896;28;20027;-71
2020/12/15 13:53:40;;;;;;;21.75;12.60;;;;;;;9.54;100.00;100544.19;5088571;28;20024;-71
2020/12/15 13:56:05;;;;;;;24.10;14.23;;;;;;;9.51;100.00;100547.03;5089278;28;20028;-71
2020/12/15 13:58:31;;;;;;;28.63;14.07;;;;;;;9.52;100.00;100548.78;5075889;28;20509;-71
2020/12/15 14:00:57;;;;;;;24.90;12.90;;;;;;;9.51;100.00;100560.44;5080094;28;20017;-70
2020/12/15 14:03:23;;;;;;;23.60;13.10;;;;;;;9.52;100.00;100558.63;5074876;28;20043;-70
2020/12/15 14:05:48;;;;;;;23.48;12.45;;;;;;;9.51;100.00;100562.25;5085004;28;20031;-70
2020/12/15 14:08:14;;;;;;;26.38;12.73;;;;;;;9.57;100.00;100573.44;5070757;28;20451;-71
2020/12/15 14:10:39;;;;;;;26.67;12.13;;;;;;;9.55;100.00;100572.72;5088246;28;20039;-71
2020/12/15 14:13:05;;;;;;;23.67;11.85;;;;;;;9.53;100.00;100569.25;5065887;28;20469;-70
2020/12/15 14:15:30;;;;;;;20.83;10.82;;;;;;;9.56;100.00;100571.75;5082624;28;20047;-71
2020/12/15 14:17:56;;;;;;;24.38;11.20;;;;;;;9.57;100.00;100573.44;5088626;28;20036;-71
2020/12/15 14:20:21;;;;;;;19.30;10.35;;;;;;;9.56;100.00;100565.53;5088711;28;20071;-70
2020/12/15 14:22:46;;;;;;;19.70;10.50;;;;;;;9.58;100.00;100564.47;5070825;28;20047;-71
2020/12/15 14:25:12;;;;;;;21.67;10.30;;;;;;;9.62;100.00;100571.38;5061428;28;20120;-71
2020/12/15 14:27:37;;;;;;;20.45;10.20;;;;;;;9.72;100.00;100579.69;5069337;28;20032;-71
2020/12/15 14:30:03;;;;;;;18.02;9.63;;;;;;;9.70;100.00;100593.16;5051128;28;20529;-71
2020/12/15 14:32:29;;;;;;;17.77;9.35;;;;;;;9.72;100.00;100593.09;5072528;28;20504;-71
2020/12/15 14:34:54;;;;;;;17.98;9.13;;;;;;;9.70;100.00;100595.84;5080872;28;20100;-71
2020/12/15 14:37:19;;;;;;;18.80;9.55;;;;;;;9.69;100.00;100599.47;5109594;28;20031;-71
2020/12/15 14:39:45;;;;;;;20.67;10.00;;;;;;;9.73;100.00;100600.16;5109436;28;20633;-71
2020/12/15 14:42:11;;;;;;;22.30;10.43;;;;;;;9.73;100.00;100602.84;5109246;28;20046;-71
2020/12/15 14:44:36;;;;;;;20.27;9.73;;;;;;;9.71;100.00;100600.25;5109307;28;20055;-72
2020/12/15 14:47:02;;;;;;;24.42;11.70;;;;;;;9.78;100.00;100597.19;5088185;28;20030;-72
2020/12/15 14:49:27;;;;;;;22.80;10.45;;;;;;;9.94;100.00;100603.28;5087317;28;20028;-71
2020/12/15 14:51:53;;;;;;;17.52;10.25;;;;;;;9.79;100.00;100610.50;5076840;28;20115;-71
2020/12/15 14:54:20;;;;;;;18.85;10.10;;;;;;;9.83;100.00;100616.53;5088564;28;20036;-71
2020/12/15 14:56:48;;;;;;;18.75;9.90;;;;;;;9.79;100.00;100621.22;5070777;28;20060;-71
2020/12/15 14:59:13;;;;;;;21.23;9.95;;;;;;;9.89;100.00;100633.09;5053513;28;20459;-71
2020/12/15 15:01:39;;;;;;;22.63;10.45;;;;;;;9.93;100.00;100628.41;5091386;28;20485;-71
2020/12/15 15:04:04;;;;;;;16.08;8.98;;;;;;;9.83;100.00;100637.97;5088481;28;20036;-71
2020/12/15 15:06:30;;;;;;;18.77;10.20;;;;;;;9.76;100.00;100642.84;5091428;28;20077;-71
2020/12/15 15:08:56;;;;;;;23.65;9.45;;;;;;;9.85;100.00;100646.78;5086685;28;20110;-71
2020/12/15 15:11:21;;;;;;;18.33;10.43;;;;;;;9.76;100.00;100642.84;5068835;28;20029;-71
2020/12/15 15:13:50;;;;;;;17.77;9.23;;;;;;;9.79;100.00;100641.81;5068721;28;20123;-71
2020/12/15 15:16:16;;;;;;;14.40;8.27;;;;;;;9.85;100.00;100653.00;5070063;28;20028;-71
2020/12/15 15:18:42;;;;;;;15.35;8.57;;;;;;;9.84;100.00;100650.41;5071131;28;20047;-71
2020/12/15 15:21:08;;;;;;;11.30;7.85;;;;;;;9.93;100.00;100644.50;5071810;28;20033;-71
2020/12/15 15:23:34;;;;;;;19.40;9.65;;;;;;;9.86;100.00;100648.53;5070317;28;20569;-71
2020/12/15 15:25:59;;;;;;;13.32;8.50;;;;;;;9.82;100.00;100655.88;5071585;28;20032;-71
2020/12/15 15:28:25;;;;;;;18.80;10.70;;;;;;;9.80;100.00;100659.63;5071276;28;20101;-71
2020/12/15 15:30:50;;;;;;;23.55;11.18;;;;;;;9.83;100.00;100671.00;5070433;28;20043;-71